sensor_id;sensor_type;location;lat;lon;timestamp;P1;durP1;ratioP1;P2;durP2;ratioP2
74650;SDS011;63169;46.042;14.592;2024-03-02T00:02:07;27.60;;;12.23;;
74650;SDS011;63169;46.042;14.592;2024-03-02T00:04:33;31.38;;;12.20;;
74650;SDS011;63169;46.042;14.592;2024-03-02T00:06:58;23.60;;;12.50;;
74650;SDS011;63169;46.042;14.592;2024-03-02T00:09:24;24.80;;;11.15;;
74650;SDS011;63169;46.042;14.592;2024-03-02T00:11:50;22.38;;;9.88;;
74650;SDS011;63169;46.042;14.592;2024-03-02T00:14:16;25.92;;;10.70;;
74650;SDS011;63169;46.042;14.592;2024-03-02T00:16:41;24.73;;;9.68;;
74650;SDS011;63169;46.042;14.592;2024-03-02T00:19:07;22.90;;;10.55;;
74650;SDS011;63169;46.042;14.592;2024-03-02T00:23:59;22.10;;;8.85;;
74650;SDS011;63169;46.042;14.592;2024-03-02T00:26:25;21.23;;;9.80;;
74650;SDS011;63169;46.042;14.592;2024-03-02T00:28:50;21.85;;;9.35;;
74650;SDS011;63169;46.042;14.592;2024-03-02T00:31:19;20.90;;;9.43;;
74650;SDS011;63169;46.042;14.592;2024-03-02T00:33:45;24.95;;;9.98;;
74650;SDS011;63169;46.042;14.592;2024-03-02T00:36:13;16.90;;;9.27;;
74650;SDS011;63169;46.042;14.592;2024-03-02T00:38:47;21.02;;;9.48;;
74650;SDS011;63169;46.042;14.592;2024-03-02T00:41:19;19.77;;;9.60;;
74650;SDS011;63169;46.042;14.592;2024-03-02T00:46:31;22.17;;;7.63;;
74650;SDS011;63169;46.042;14.592;2024-03-02T00:49:00;21.48;;;9.13;;
74650;SDS011;63169;46.042;14.592;2024-03-02T00:51:26;20.95;;;10.57;;
74650;SDS011;63169;46.042;14.592;2024-03-02T00:53:53;18.70;;;7.90;;
74650;SDS011;63169;46.042;14.592;2024-03-02T00:56:21;22.42;;;8.88;;
74650;SDS011;63169;46.042;14.592;2024-03-02T00:58:47;24.92;;;12.02;;
74650;SDS011;63169;46.042;14.592;2024-03-02T01:01:13;20.73;;;10.38;;
74650;SDS011;63169;46.042;14.592;2024-03-02T01:03:39;27.63;;;9.73;;
74650;SDS011;63169;46.042;14.592;2024-03-02T01:06:06;27.50;;;11.95;;
74650;SDS011;63169;46.042;14.592;2024-03-02T01:08:32;29.08;;;12.27;;
74650;SDS011;63169;46.042;14.592;2024-03-02T01:10:58;30.23;;;10.95;;
74650;SDS011;63169;46.042;14.592;2024-03-02T01:13:24;31.70;;;11.82;;
74650;SDS011;63169;46.042;14.592;2024-03-02T01:15:49;30.20;;;12.77;;
74650;SDS011;63169;46.042;14.592;2024-03-02T01:18:15;31.92;;;13.55;;
74650;SDS011;63169;46.042;14.592;2024-03-02T01:20:41;31.33;;;11.90;;
74650;SDS011;63169;46.042;14.592;2024-03-02T01:23:06;32.13;;;13.50;;
74650;SDS011;63169;46.042;14.592;2024-03-02T01:25:32;33.60;;;13.45;;
74650;SDS011;63169;46.042;14.592;2024-03-02T01:27:57;32.75;;;13.40;;
74650;SDS011;63169;46.042;14.592;2024-03-02T01:30:22;34.42;;;13.35;;
74650;SDS011;63169;46.042;14.592;2024-03-02T01:32:48;34.60;;;13.93;;
74650;SDS011;63169;46.042;14.592;2024-03-02T01:35:13;35.00;;;12.30;;
74650;SDS011;63169;46.042;14.592;2024-03-02T01:37:40;36.47;;;14.23;;
74650;SDS011;63169;46.042;14.592;2024-03-02T01:40:06;35.38;;;13.00;;
74650;SDS011;63169;46.042;14.592;2024-03-02T01:42:37;31.77;;;13.65;;
74650;SDS011;63169;46.042;14.592;2024-03-02T01:45:04;35.25;;;14.35;;
74650;SDS011;63169;46.042;14.592;2024-03-02T01:47:30;30.30;;;13.55;;
74650;SDS011;63169;46.042;14.592;2024-03-02T01:49:57;33.08;;;13.55;;
74650;SDS011;63169;46.042;14.592;2024-03-02T01:52:23;33.90;;;14.35;;
74650;SDS011;63169;46.042;14.592;2024-03-02T01:54:48;27.90;;;14.27;;
74650;SDS011;63169;46.042;14.592;2024-03-02T01:57:14;33.85;;;15.68;;
74650;SDS011;63169;46.042;14.592;2024-03-02T01:59:39;37.03;;;14.48;;
74650;SDS011;63169;46.042;14.592;2024-03-02T02:02:05;32.20;;;14.32;;
74650;SDS011;63169;46.042;14.592;2024-03-02T02:04:30;35.47;;;15.77;;
74650;SDS011;63169;46.042;14.592;2024-03-02T02:06:56;33.38;;;15.02;;
74650;SDS011;63169;46.042;14.592;2024-03-02T02:09:21;34.10;;;13.25;;
74650;SDS011;63169;46.042;14.592;2024-03-02T02:11:47;29.90;;;13.88;;
74650;SDS011;63169;46.042;14.592;2024-03-02T02:14:12;35.67;;;14.65;;
74650;SDS011;63169;46.042;14.592;2024-03-02T02:16:38;31.35;;;14.50;;
74650;SDS011;63169;46.042;14.592;2024-03-02T02:19:03;34.22;;;15.77;;
74650;SDS011;63169;46.042;14.592;2024-03-02T02:21:29;35.63;;;15.05;;
74650;SDS011;63169;46.042;14.592;2024-03-02T02:23:54;35.10;;;13.50;;
74650;SDS011;63169;46.042;14.592;2024-03-02T02:26:20;33.28;;;13.85;;
74650;SDS011;63169;46.042;14.592;2024-03-02T02:28:45;34.13;;;13.02;;
74650;SDS011;63169;46.042;14.592;2024-03-02T02:31:13;32.17;;;13.20;;
74650;SDS011;63169;46.042;14.592;2024-03-02T02:33:39;33.50;;;14.43;;
74650;SDS011;63169;46.042;14.592;2024-03-02T02:36:05;30.65;;;13.95;;
74650;SDS011;63169;46.042;14.592;2024-03-02T02:38:31;33.65;;;14.90;;
74650;SDS011;63169;46.042;14.592;2024-03-02T02:40:58;36.97;;;14.15;;
74650;SDS011;63169;46.042;14.592;2024-03-02T02:43:23;35.03;;;14.10;;
74650;SDS011;63169;46.042;14.592;2024-03-02T02:45:49;36.25;;;14.00;;
74650;SDS011;63169;46.042;14.592;2024-03-02T02:48:14;36.95;;;14.52;;
74650;SDS011;63169;46.042;14.592;2024-03-02T02:50:41;31.50;;;14.27;;
74650;SDS011;63169;46.042;14.592;2024-03-02T02:53:06;32.25;;;13.95;;
74650;SDS011;63169;46.042;14.592;2024-03-02T02:55:34;34.38;;;14.25;;
74650;SDS011;63169;46.042;14.592;2024-03-02T02:58:00;31.50;;;13.57;;
74650;SDS011;63169;46.042;14.592;2024-03-02T03:00:25;39.25;;;15.82;;
74650;SDS011;63169;46.042;14.592;2024-03-02T03:02:51;31.98;;;12.40;;
74650;SDS011;63169;46.042;14.592;2024-03-02T03:05:16;31.70;;;13.02;;
74650;SDS011;63169;46.042;14.592;2024-03-02T03:07:42;34.60;;;14.35;;
74650;SDS011;63169;46.042;14.592;2024-03-02T03:12:34;38.15;;;14.02;;
74650;SDS011;63169;46.042;14.592;2024-03-02T03:15:00;36.97;;;14.13;;
74650;SDS011;63169;46.042;14.592;2024-03-02T03:17:27;38.30;;;14.50;;
74650;SDS011;63169;46.042;14.592;2024-03-02T03:19:52;32.38;;;12.27;;
74650;SDS011;63169;46.042;14.592;2024-03-02T03:22:18;42.58;;;15.95;;
74650;SDS011;63169;46.042;14.592;2024-03-02T03:24:43;38.35;;;15.80;;
74650;SDS011;63169;46.042;14.592;2024-03-02T03:27:09;42.53;;;14.07;;
74650;SDS011;63169;46.042;14.592;2024-03-02T03:29:36;34.47;;;13.52;;
74650;SDS011;63169;46.042;14.592;2024-03-02T03:32:01;33.88;;;13.93;;
74650;SDS011;63169;46.042;14.592;2024-03-02T03:34:27;41.38;;;14.80;;
74650;SDS011;63169;46.042;14.592;2024-03-02T03:39:19;35.67;;;13.48;;
74650;SDS011;63169;46.042;14.592;2024-03-02T03:41:44;39.58;;;13.55;;
74650;SDS011;63169;46.042;14.592;2024-03-02T03:44:10;40.00;;;15.82;;
74650;SDS011;63169;46.042;14.592;2024-03-02T03:46:35;42.85;;;15.27;;
74650;SDS011;63169;46.042;14.592;2024-03-02T03:49:01;41.50;;;16.45;;
74650;SDS011;63169;46.042;14.592;2024-03-02T03:51:27;43.20;;;15.23;;
74650;SDS011;63169;46.042;14.592;2024-03-02T03:53:52;43.45;;;16.25;;
74650;SDS011;63169;46.042;14.592;2024-03-02T03:56:17;39.42;;;16.65;;
74650;SDS011;63169;46.042;14.592;2024-03-02T03:58:43;43.08;;;14.02;;
74650;SDS011;63169;46.042;14.592;2024-03-02T04:01:08;40.28;;;16.17;;
74650;SDS011;63169;46.042;14.592;2024-03-02T04:03:34;37.15;;;16.00;;
74650;SDS011;63169;46.042;14.592;2024-03-02T04:05:59;37.42;;;14.45;;
74650;SDS011;63169;46.042;14.592;2024-03-02T04:08:25;36.80;;;14.57;;
74650;SDS011;63169;46.042;14.592;2024-03-02T04:10:50;33.60;;;14.30;;
74650;SDS011;63169;46.042;14.592;2024-03-02T04:13:16;42.08;;;14.32;;
74650;SDS011;63169;46.042;14.592;2024-03-02T04:15:41;36.88;;;14.05;;
74650;SDS011;63169;46.042;14.592;2024-03-02T04:18:06;35.05;;;13.90;;
74650;SDS011;63169;46.042;14.592;2024-03-02T04:20:32;40.22;;;15.43;;
74650;SDS011;63169;46.042;14.592;2024-03-02T04:22:57;32.35;;;14.80;;
74650;SDS011;63169;46.042;14.592;2024-03-02T04:25:23;42.75;;;15.80;;
74650;SDS011;63169;46.042;14.592;2024-03-02T04:27:48;42.72;;;16.00;;
74650;SDS011;63169;46.042;14.592;2024-03-02T04:30:13;37.78;;;14.02;;
74650;SDS011;63169;46.042;14.592;2024-03-02T04:32:39;42.03;;;17.13;;
74650;SDS011;63169;46.042;14.592;2024-03-02T04:35:05;38.67;;;15.38;;
74650;SDS011;63169;46.042;14.592;2024-03-02T04:37:36;39.83;;;13.95;;
74650;SDS011;63169;46.042;14.592;2024-03-02T04:40:01;36.70;;;13.32;;
74650;SDS011;63169;46.042;14.592;2024-03-02T04:42:26;39.10;;;13.68;;
74650;SDS011;63169;46.042;14.592;2024-03-02T04:44:52;39.78;;;15.05;;
74650;SDS011;63169;46.042;14.592;2024-03-02T04:47:17;41.10;;;15.73;;
74650;SDS011;63169;46.042;14.592;2024-03-02T04:49:43;39.47;;;14.80;;
74650;SDS011;63169;46.042;14.592;2024-03-02T04:52:08;36.70;;;13.18;;
74650;SDS011;63169;46.042;14.592;2024-03-02T04:54:34;42.88;;;16.30;;
74650;SDS011;63169;46.042;14.592;2024-03-02T04:57:19;29.52;;;12.50;;
74650;SDS011;63169;46.042;14.592;2024-03-02T04:59:45;28.20;;;11.73;;
74650;SDS011;63169;46.042;14.592;2024-03-02T05:02:10;30.65;;;11.13;;
74650;SDS011;63169;46.042;14.592;2024-03-02T05:04:35;25.65;;;12.60;;
74650;SDS011;63169;46.042;14.592;2024-03-02T05:07:01;31.42;;;12.07;;
74650;SDS011;63169;46.042;14.592;2024-03-02T05:09:26;28.27;;;11.32;;
74650;SDS011;63169;46.042;14.592;2024-03-02T05:11:52;27.02;;;10.05;;
74650;SDS011;63169;46.042;14.592;2024-03-02T05:14:36;26.52;;;11.45;;
74650;SDS011;63169;46.042;14.592;2024-03-02T05:17:02;22.92;;;10.45;;
74650;SDS011;63169;46.042;14.592;2024-03-02T05:19:28;23.65;;;9.85;;
74650;SDS011;63169;46.042;14.592;2024-03-02T05:21:56;25.15;;;12.15;;
74650;SDS011;63169;46.042;14.592;2024-03-02T05:24:21;27.95;;;10.05;;
74650;SDS011;63169;46.042;14.592;2024-03-02T05:26:47;31.02;;;11.45;;
74650;SDS011;63169;46.042;14.592;2024-03-02T05:29:12;33.72;;;11.10;;
74650;SDS011;63169;46.042;14.592;2024-03-02T05:31:37;26.80;;;10.90;;
74650;SDS011;63169;46.042;14.592;2024-03-02T05:34:03;30.63;;;10.82;;
74650;SDS011;63169;46.042;14.592;2024-03-02T05:36:28;31.08;;;11.70;;
74650;SDS011;63169;46.042;14.592;2024-03-02T05:38:54;28.38;;;11.32;;
74650;SDS011;63169;46.042;14.592;2024-03-02T05:41:19;27.45;;;9.30;;
74650;SDS011;63169;46.042;14.592;2024-03-02T05:43:45;28.65;;;11.10;;
74650;SDS011;63169;46.042;14.592;2024-03-02T05:46:10;27.85;;;10.52;;
74650;SDS011;63169;46.042;14.592;2024-03-02T05:48:35;30.98;;;12.02;;
74650;SDS011;63169;46.042;14.592;2024-03-02T05:51:04;32.65;;;12.90;;
74650;SDS011;63169;46.042;14.592;2024-03-02T05:53:29;37.92;;;12.05;;
74650;SDS011;63169;46.042;14.592;2024-03-02T05:55:55;37.35;;;12.40;;
74650;SDS011;63169;46.042;14.592;2024-03-02T05:58:21;29.00;;;10.80;;
74650;SDS011;63169;46.042;14.592;2024-03-02T06:01:05;27.05;;;11.52;;
74650;SDS011;63169;46.042;14.592;2024-03-02T06:03:31;30.20;;;11.82;;
74650;SDS011;63169;46.042;14.592;2024-03-02T06:05:57;35.45;;;11.95;;
74650;SDS011;63169;46.042;14.592;2024-03-02T06:08:22;32.13;;;11.60;;
74650;SDS011;63169;46.042;14.592;2024-03-02T06:10:48;29.90;;;11.77;;
74650;SDS011;63169;46.042;14.592;2024-03-02T06:13:13;35.80;;;12.70;;
74650;SDS011;63169;46.042;14.592;2024-03-02T06:15:38;35.15;;;11.13;;
74650;SDS011;63169;46.042;14.592;2024-03-02T06:18:04;34.28;;;13.23;;
74650;SDS011;63169;46.042;14.592;2024-03-02T06:20:31;33.65;;;12.60;;
74650;SDS011;63169;46.042;14.592;2024-03-02T06:22:57;35.40;;;13.20;;
74650;SDS011;63169;46.042;14.592;2024-03-02T06:25:22;31.88;;;12.73;;
74650;SDS011;63169;46.042;14.592;2024-03-02T06:27:47;38.53;;;14.25;;
74650;SDS011;63169;46.042;14.592;2024-03-02T06:30:13;36.08;;;12.57;;
74650;SDS011;63169;46.042;14.592;2024-03-02T06:32:39;36.85;;;13.20;;
74650;SDS011;63169;46.042;14.592;2024-03-02T06:35:04;36.90;;;14.52;;
74650;SDS011;63169;46.042;14.592;2024-03-02T06:37:32;33.33;;;13.32;;
74650;SDS011;63169;46.042;14.592;2024-03-02T06:39:57;36.03;;;13.68;;
74650;SDS011;63169;46.042;14.592;2024-03-02T06:42:23;32.88;;;14.23;;
74650;SDS011;63169;46.042;14.592;2024-03-02T06:44:49;36.90;;;12.85;;
74650;SDS011;63169;46.042;14.592;2024-03-02T06:47:15;35.75;;;13.93;;
74650;SDS011;63169;46.042;14.592;2024-03-02T06:49:41;35.42;;;12.05;;
74650;SDS011;63169;46.042;14.592;2024-03-02T06:52:07;33.15;;;13.25;;
74650;SDS011;63169;46.042;14.592;2024-03-02T06:54:32;36.65;;;12.85;;
74650;SDS011;63169;46.042;14.592;2024-03-02T06:56:59;32.60;;;11.90;;
74650;SDS011;63169;46.042;14.592;2024-03-02T06:59:25;33.72;;;11.82;;
74650;SDS011;63169;46.042;14.592;2024-03-02T07:01:50;39.83;;;12.93;;
74650;SDS011;63169;46.042;14.592;2024-03-02T07:04:16;42.10;;;13.85;;
74650;SDS011;63169;46.042;14.592;2024-03-02T07:06:41;32.58;;;13.07;;
74650;SDS011;63169;46.042;14.592;2024-03-02T07:09:07;30.02;;;11.68;;
74650;SDS011;63169;46.042;14.592;2024-03-02T07:11:36;26.60;;;11.90;;
74650;SDS011;63169;46.042;14.592;2024-03-02T07:14:01;40.72;;;13.73;;
74650;SDS011;63169;46.042;14.592;2024-03-02T07:16:27;31.38;;;13.30;;
74650;SDS011;63169;46.042;14.592;2024-03-02T07:18:58;42.53;;;13.63;;
74650;SDS011;63169;46.042;14.592;2024-03-02T07:21:24;73.63;;;30.63;;
74650;SDS011;63169;46.042;14.592;2024-03-02T07:23:49;78.55;;;34.35;;
74650;SDS011;63169;46.042;14.592;2024-03-02T07:26:15;46.55;;;17.33;;
74650;SDS011;63169;46.042;14.592;2024-03-02T07:28:43;40.28;;;15.18;;
74650;SDS011;63169;46.042;14.592;2024-03-02T07:31:09;39.25;;;14.65;;
74650;SDS011;63169;46.042;14.592;2024-03-02T07:33:35;38.42;;;15.32;;
74650;SDS011;63169;46.042;14.592;2024-03-02T07:36:00;42.67;;;14.45;;
74650;SDS011;63169;46.042;14.592;2024-03-02T07:38:27;40.67;;;14.63;;
74650;SDS011;63169;46.042;14.592;2024-03-02T07:40:53;41.85;;;13.32;;
74650;SDS011;63169;46.042;14.592;2024-03-02T07:43:20;54.92;;;24.35;;
74650;SDS011;63169;46.042;14.592;2024-03-02T07:45:46;42.35;;;15.90;;
74650;SDS011;63169;46.042;14.592;2024-03-02T07:48:12;36.38;;;13.38;;
74650;SDS011;63169;46.042;14.592;2024-03-02T07:50:37;37.13;;;14.07;;
74650;SDS011;63169;46.042;14.592;2024-03-02T07:53:04;37.20;;;13.50;;
74650;SDS011;63169;46.042;14.592;2024-03-02T07:55:29;33.72;;;12.57;;
74650;SDS011;63169;46.042;14.592;2024-03-02T07:57:55;40.08;;;14.38;;
74650;SDS011;63169;46.042;14.592;2024-03-02T08:00:21;38.22;;;14.77;;
74650;SDS011;63169;46.042;14.592;2024-03-02T08:02:48;40.80;;;14.05;;
74650;SDS011;63169;46.042;14.592;2024-03-02T08:05:14;38.50;;;13.60;;
74650;SDS011;63169;46.042;14.592;2024-03-02T08:07:39;161.52;;;88.35;;
74650;SDS011;63169;46.042;14.592;2024-03-02T08:10:06;40.72;;;17.25;;
74650;SDS011;63169;46.042;14.592;2024-03-02T08:12:32;35.55;;;12.77;;
74650;SDS011;63169;46.042;14.592;2024-03-02T08:14:57;36.80;;;13.00;;
74650;SDS011;63169;46.042;14.592;2024-03-02T08:17:22;34.28;;;12.48;;
74650;SDS011;63169;46.042;14.592;2024-03-02T08:19:48;34.15;;;14.02;;
74650;SDS011;63169;46.042;14.592;2024-03-02T08:22:14;34.97;;;13.13;;
74650;SDS011;63169;46.042;14.592;2024-03-02T08:24:40;31.65;;;12.65;;
74650;SDS011;63169;46.042;14.592;2024-03-02T08:27:06;30.27;;;12.10;;
74650;SDS011;63169;46.042;14.592;2024-03-02T08:29:31;32.08;;;12.30;;
74650;SDS011;63169;46.042;14.592;2024-03-02T08:31:57;32.30;;;12.63;;
74650;SDS011;63169;46.042;14.592;2024-03-02T08:34:22;34.67;;;12.00;;
74650;SDS011;63169;46.042;14.592;2024-03-02T08:36:47;29.67;;;12.15;;
74650;SDS011;63169;46.042;14.592;2024-03-02T08:39:13;33.38;;;15.07;;
74650;SDS011;63169;46.042;14.592;2024-03-02T08:41:42;28.95;;;13.15;;
74650;SDS011;63169;46.042;14.592;2024-03-02T08:44:09;31.17;;;12.10;;
74650;SDS011;63169;46.042;14.592;2024-03-02T08:46:34;30.65;;;11.18;;
74650;SDS011;63169;46.042;14.592;2024-03-02T08:49:00;32.95;;;12.43;;
74650;SDS011;63169;46.042;14.592;2024-03-02T08:51:25;32.20;;;11.65;;
74650;SDS011;63169;46.042;14.592;2024-03-02T08:53:51;29.88;;;13.35;;
74650;SDS011;63169;46.042;14.592;2024-03-02T08:56:16;32.30;;;12.57;;
74650;SDS011;63169;46.042;14.592;2024-03-02T08:58:42;26.55;;;13.20;;
74650;SDS011;63169;46.042;14.592;2024-03-02T09:01:08;32.97;;;14.15;;
74650;SDS011;63169;46.042;14.592;2024-03-02T09:03:34;32.83;;;12.73;;
74650;SDS011;63169;46.042;14.592;2024-03-02T09:06:00;30.83;;;12.20;;
74650;SDS011;63169;46.042;14.592;2024-03-02T09:08:26;28.70;;;12.18;;
74650;SDS011;63169;46.042;14.592;2024-03-02T09:10:51;31.70;;;12.50;;
74650;SDS011;63169;46.042;14.592;2024-03-02T09:13:17;32.25;;;12.63;;
74650;SDS011;63169;46.042;14.592;2024-03-02T09:15:42;32.10;;;13.68;;
74650;SDS011;63169;46.042;14.592;2024-03-02T09:20:34;24.55;;;10.90;;
74650;SDS011;63169;46.042;14.592;2024-03-02T09:23:00;26.45;;;11.02;;
74650;SDS011;63169;46.042;14.592;2024-03-02T09:25:25;34.45;;;13.82;;
74650;SDS011;63169;46.042;14.592;2024-03-02T09:27:51;29.05;;;11.57;;
74650;SDS011;63169;46.042;14.592;2024-03-02T09:30:16;27.13;;;11.82;;
74650;SDS011;63169;46.042;14.592;2024-03-02T09:32:42;24.83;;;11.38;;
74650;SDS011;63169;46.042;14.592;2024-03-02T09:35:07;27.55;;;10.77;;
74650;SDS011;63169;46.042;14.592;2024-03-02T09:37:34;26.33;;;11.60;;
74650;SDS011;63169;46.042;14.592;2024-03-02T09:40:00;30.60;;;12.32;;
74650;SDS011;63169;46.042;14.592;2024-03-02T09:42:25;24.98;;;10.25;;
74650;SDS011;63169;46.042;14.592;2024-03-02T09:44:51;27.70;;;12.10;;
74650;SDS011;63169;46.042;14.592;2024-03-02T09:47:17;34.15;;;13.23;;
74650;SDS011;63169;46.042;14.592;2024-03-02T09:49:42;34.20;;;13.80;;
74650;SDS011;63169;46.042;14.592;2024-03-02T09:52:08;35.63;;;12.48;;
74650;SDS011;63169;46.042;14.592;2024-03-02T09:54:35;30.45;;;13.82;;
74650;SDS011;63169;46.042;14.592;2024-03-02T09:57:01;31.48;;;13.20;;
74650;SDS011;63169;46.042;14.592;2024-03-02T09:59:27;33.42;;;15.70;;
74650;SDS011;63169;46.042;14.592;2024-03-02T10:02:00;36.00;;;13.93;;
74650;SDS011;63169;46.042;14.592;2024-03-02T10:04:27;29.35;;;12.20;;
74650;SDS011;63169;46.042;14.592;2024-03-02T10:09:52;24.33;;;10.52;;
74650;SDS011;63169;46.042;14.592;2024-03-02T10:12:18;22.65;;;11.30;;
74650;SDS011;63169;46.042;14.592;2024-03-02T10:14:43;25.70;;;12.18;;
74650;SDS011;63169;46.042;14.592;2024-03-02T10:17:12;25.33;;;11.13;;
74650;SDS011;63169;46.042;14.592;2024-03-02T10:19:39;30.58;;;12.38;;
74650;SDS011;63169;46.042;14.592;2024-03-02T10:22:08;26.25;;;10.18;;
74650;SDS011;63169;46.042;14.592;2024-03-02T10:27:06;25.80;;;12.27;;
74650;SDS011;63169;46.042;14.592;2024-03-02T10:29:38;29.55;;;10.80;;
74650;SDS011;63169;46.042;14.592;2024-03-02T10:32:05;27.85;;;12.43;;
74650;SDS011;63169;46.042;14.592;2024-03-02T10:34:31;24.25;;;12.40;;
74650;SDS011;63169;46.042;14.592;2024-03-02T10:36:57;25.17;;;11.55;;
74650;SDS011;63169;46.042;14.592;2024-03-02T10:39:23;26.45;;;11.27;;
74650;SDS011;63169;46.042;14.592;2024-03-02T10:41:49;21.70;;;9.73;;
74650;SDS011;63169;46.042;14.592;2024-03-02T10:44:14;31.20;;;13.93;;
74650;SDS011;63169;46.042;14.592;2024-03-02T10:46:41;17.92;;;9.30;;
74650;SDS011;63169;46.042;14.592;2024-03-02T10:49:09;22.45;;;9.88;;
74650;SDS011;63169;46.042;14.592;2024-03-02T10:51:34;20.98;;;9.30;;
74650;SDS011;63169;46.042;14.592;2024-03-02T10:54:02;20.63;;;9.57;;
74650;SDS011;63169;46.042;14.592;2024-03-02T10:56:29;22.55;;;8.70;;
74650;SDS011;63169;46.042;14.592;2024-03-02T10:58:59;22.80;;;9.75;;
74650;SDS011;63169;46.042;14.592;2024-03-02T11:01:28;18.48;;;7.22;;
74650;SDS011;63169;46.042;14.592;2024-03-02T11:03:55;16.00;;;7.03;;
74650;SDS011;63169;46.042;14.592;2024-03-02T11:06:21;17.70;;;7.57;;
74650;SDS011;63169;46.042;14.592;2024-03-02T11:08:47;21.65;;;8.48;;
74650;SDS011;63169;46.042;14.592;2024-03-02T11:11:15;20.10;;;8.30;;
74650;SDS011;63169;46.042;14.592;2024-03-02T11:13:45;16.70;;;7.35;;
74650;SDS011;63169;46.042;14.592;2024-03-02T11:16:33;17.17;;;7.13;;
74650;SDS011;63169;46.042;14.592;2024-03-02T11:19:11;20.77;;;8.90;;
74650;SDS011;63169;46.042;14.592;2024-03-02T11:21:38;17.00;;;8.10;;
74650;SDS011;63169;46.042;14.592;2024-03-02T11:27:14;17.75;;;6.63;;
74650;SDS011;63169;46.042;14.592;2024-03-02T11:34:42;16.30;;;6.93;;
74650;SDS011;63169;46.042;14.592;2024-03-02T11:37:12;16.15;;;7.75;;
74650;SDS011;63169;46.042;14.592;2024-03-02T11:39:40;15.25;;;7.53;;
74650;SDS011;63169;46.042;14.592;2024-03-02T11:42:07;17.55;;;8.88;;
74650;SDS011;63169;46.042;14.592;2024-03-02T11:44:36;15.02;;;6.35;;
74650;SDS011;63169;46.042;14.592;2024-03-02T11:49:39;11.82;;;5.20;;
74650;SDS011;63169;46.042;14.592;2024-03-02T11:52:05;13.00;;;5.20;;
74650;SDS011;63169;46.042;14.592;2024-03-02T11:54:35;11.35;;;4.53;;
74650;SDS011;63169;46.042;14.592;2024-03-02T11:57:05;10.77;;;4.65;;
74650;SDS011;63169;46.042;14.592;2024-03-02T12:01:57;13.95;;;5.78;;
74650;SDS011;63169;46.042;14.592;2024-03-02T12:04:23;11.43;;;5.22;;
74650;SDS011;63169;46.042;14.592;2024-03-02T12:06:55;11.43;;;5.93;;
74650;SDS011;63169;46.042;14.592;2024-03-02T12:09:24;10.25;;;4.35;;
74650;SDS011;63169;46.042;14.592;2024-03-02T12:12:00;11.38;;;4.00;;
74650;SDS011;63169;46.042;14.592;2024-03-02T12:17:02;11.40;;;4.15;;
74650;SDS011;63169;46.042;14.592;2024-03-02T12:19:28;13.23;;;4.22;;
74650;SDS011;63169;46.042;14.592;2024-03-02T12:21:55;9.32;;;3.58;;
74650;SDS011;63169;46.042;14.592;2024-03-02T12:24:21;11.50;;;3.53;;
74650;SDS011;63169;46.042;14.592;2024-03-02T12:26:47;9.88;;;4.18;;
74650;SDS011;63169;46.042;14.592;2024-03-02T12:29:16;9.65;;;3.85;;
74650;SDS011;63169;46.042;14.592;2024-03-02T12:31:42;7.22;;;3.22;;
74650;SDS011;63169;46.042;14.592;2024-03-02T12:34:10;9.05;;;3.90;;
74650;SDS011;63169;46.042;14.592;2024-03-02T12:36:38;7.35;;;2.97;;
74650;SDS011;63169;46.042;14.592;2024-03-02T12:41:29;5.65;;;2.03;;
74650;SDS011;63169;46.042;14.592;2024-03-02T12:43:54;6.03;;;3.03;;
74650;SDS011;63169;46.042;14.592;2024-03-02T12:46:20;6.90;;;2.38;;
74650;SDS011;63169;46.042;14.592;2024-03-02T12:48:45;6.30;;;2.22;;
74650;SDS011;63169;46.042;14.592;2024-03-02T12:51:11;4.47;;;1.88;;
74650;SDS011;63169;46.042;14.592;2024-03-02T12:53:37;9.25;;;2.88;;
74650;SDS011;63169;46.042;14.592;2024-03-02T12:56:02;5.78;;;3.00;;
74650;SDS011;63169;46.042;14.592;2024-03-02T12:58:29;7.95;;;2.47;;
74650;SDS011;63169;46.042;14.592;2024-03-02T13:01:08;11.35;;;3.05;;
74650;SDS011;63169;46.042;14.592;2024-03-02T13:03:37;8.65;;;2.65;;
74650;SDS011;63169;46.042;14.592;2024-03-02T13:06:04;7.85;;;2.25;;
74650;SDS011;63169;46.042;14.592;2024-03-02T13:08:30;8.63;;;1.98;;
74650;SDS011;63169;46.042;14.592;2024-03-02T13:10:55;6.65;;;3.33;;
74650;SDS011;63169;46.042;14.592;2024-03-02T13:13:21;10.57;;;3.13;;
74650;SDS011;63169;46.042;14.592;2024-03-02T13:15:48;10.25;;;3.50;;
74650;SDS011;63169;46.042;14.592;2024-03-02T13:18:13;9.55;;;3.60;;
74650;SDS011;63169;46.042;14.592;2024-03-02T13:20:39;7.25;;;2.65;;
74650;SDS011;63169;46.042;14.592;2024-03-02T13:23:05;7.85;;;3.33;;
74650;SDS011;63169;46.042;14.592;2024-03-02T13:25:31;7.55;;;3.05;;
74650;SDS011;63169;46.042;14.592;2024-03-02T13:27:57;7.45;;;2.63;;
74650;SDS011;63169;46.042;14.592;2024-03-02T13:32:48;6.55;;;2.95;;
74650;SDS011;63169;46.042;14.592;2024-03-02T13:35:14;9.73;;;4.68;;
74650;SDS011;63169;46.042;14.592;2024-03-02T13:37:39;7.78;;;2.60;;
74650;SDS011;63169;46.042;14.592;2024-03-02T13:40:05;8.75;;;2.90;;
74650;SDS011;63169;46.042;14.592;2024-03-02T13:42:31;8.00;;;2.45;;
74650;SDS011;63169;46.042;14.592;2024-03-02T13:44:56;7.70;;;2.47;;
74650;SDS011;63169;46.042;14.592;2024-03-02T13:47:22;5.28;;;2.30;;
74650;SDS011;63169;46.042;14.592;2024-03-02T13:49:47;3.80;;;0.60;;
74650;SDS011;63169;46.042;14.592;2024-03-02T13:52:14;1.63;;;0.70;;
74650;SDS011;63169;46.042;14.592;2024-03-02T13:54:42;1.90;;;0.43;;
74650;SDS011;63169;46.042;14.592;2024-03-02T13:57:08;2.88;;;1.13;;
74650;SDS011;63169;46.042;14.592;2024-03-02T13:59:34;3.15;;;0.75;;
74650;SDS011;63169;46.042;14.592;2024-03-02T14:02:01;2.97;;;1.08;;
74650;SDS011;63169;46.042;14.592;2024-03-02T14:04:29;2.50;;;0.75;;
74650;SDS011;63169;46.042;14.592;2024-03-02T14:06:55;4.22;;;1.52;;
74650;SDS011;63169;46.042;14.592;2024-03-02T14:09:21;5.50;;;1.25;;
74650;SDS011;63169;46.042;14.592;2024-03-02T14:11:47;3.58;;;0.88;;
74650;SDS011;63169;46.042;14.592;2024-03-02T14:14:12;4.80;;;0.60;;
74650;SDS011;63169;46.042;14.592;2024-03-02T14:16:38;6.38;;;0.80;;
74650;SDS011;63169;46.042;14.592;2024-03-02T14:19:03;2.25;;;0.63;;
74650;SDS011;63169;46.042;14.592;2024-03-02T14:21:30;7.72;;;1.67;;
74650;SDS011;63169;46.042;14.592;2024-03-02T14:23:55;6.07;;;2.85;;
74650;SDS011;63169;46.042;14.592;2024-03-02T14:26:21;2.83;;;0.98;;
74650;SDS011;63169;46.042;14.592;2024-03-02T14:28:46;2.80;;;0.80;;
74650;SDS011;63169;46.042;14.592;2024-03-02T14:31:12;2.42;;;0.30;;
74650;SDS011;63169;46.042;14.592;2024-03-02T14:33:37;1.63;;;0.15;;
74650;SDS011;63169;46.042;14.592;2024-03-02T14:36:03;1.42;;;0.43;;
74650;SDS011;63169;46.042;14.592;2024-03-02T14:38:29;1.10;;;0.20;;
74650;SDS011;63169;46.042;14.592;2024-03-02T14:40:55;2.05;;;0.30;;
74650;SDS011;63169;46.042;14.592;2024-03-02T14:43:21;1.02;;;0.30;;
74650;SDS011;63169;46.042;14.592;2024-03-02T14:45:47;2.85;;;0.20;;
74650;SDS011;63169;46.042;14.592;2024-03-02T14:48:13;0.63;;;0.20;;
74650;SDS011;63169;46.042;14.592;2024-03-02T14:50:38;1.05;;;0.43;;